createdAt,value
2017-10-12T00:00:56.959Z,0
2017-10-12T00:02:09.510Z,0
2017-10-12T00:03:21.768Z,0
2017-10-12T00:04:34.021Z,0
2017-10-12T00:05:46.584Z,0
2017-10-12T00:06:58.830Z,0
2017-10-12T00:08:10.751Z,0
2017-10-12T00:09:22.996Z,0
2017-10-12T00:10:35.554Z,0
2017-10-12T00:11:47.473Z,0
2017-10-12T00:13:00.058Z,0
2017-10-12T00:14:12.312Z,0
2017-10-12T00:15:24.874Z,0
2017-10-12T00:16:36.831Z,0
2017-10-12T00:17:49.416Z,0
2017-10-12T00:19:01.669Z,0
2017-10-12T00:20:14.245Z,0
2017-10-12T00:21:26.827Z,0
2017-10-12T00:22:39.384Z,0
2017-10-12T00:23:51.952Z,0
2017-10-12T00:25:04.513Z,0
2017-10-12T00:26:17.067Z,0
2017-10-12T00:27:29.617Z,0
2017-10-12T00:28:42.183Z,0
2017-10-12T00:29:54.472Z,0
2017-10-12T00:31:06.400Z,0
2017-10-12T00:32:18.967Z,0
2017-10-12T00:33:31.783Z,0
2017-10-12T00:34:44.355Z,0
2017-10-12T00:35:56.607Z,0
2017-10-12T00:37:09.179Z,0
2017-10-12T00:38:21.417Z,0
2017-10-12T00:39:33.669Z,0
2017-10-12T00:40:45.933Z,0
2017-10-12T00:41:58.504Z,0
2017-10-12T00:43:10.738Z,0
2017-10-12T00:44:23.552Z,0
2017-10-12T00:45:35.829Z,0
2017-10-12T00:46:48.086Z,0
2017-10-12T00:48:00.007Z,0
2017-10-12T00:49:12.580Z,0
2017-10-12T00:50:24.830Z,0
2017-10-12T00:51:37.401Z,0
2017-10-12T00:52:49.664Z,0
2017-10-12T00:54:02.234Z,0
2017-10-12T00:55:14.491Z,0
2017-10-12T00:56:27.051Z,0
2017-10-12T00:57:39.308Z,0
2017-10-12T00:58:51.892Z,0
2017-10-12T01:00:04.137Z,0
2017-10-12T01:01:16.397Z,0
2017-10-12T01:02:28.944Z,0
2017-10-12T01:03:41.525Z,0
2017-10-12T01:04:54.101Z,0
2017-10-12T01:06:06.029Z,0
2017-10-12T01:07:18.266Z,0
2017-10-12T01:08:30.840Z,0
2017-10-12T01:09:43.103Z,0
2017-10-12T01:10:55.673Z,0
2017-10-12T01:12:07.919Z,0
2017-10-12T01:13:20.478Z,0
2017-10-12T01:14:33.061Z,0
2017-10-12T01:15:45.316Z,0
2017-10-12T01:16:58.185Z,0
2017-10-12T01:18:10.122Z,0
2017-10-12T01:19:22.368Z,0
2017-10-12T01:20:34.621Z,0
2017-10-12T01:21:47.184Z,0
2017-10-12T01:22:59.755Z,0
2017-10-12T01:24:12.325Z,0
2017-10-12T01:25:24.895Z,0
2017-10-12T01:26:37.142Z,0
2017-10-12T01:27:49.386Z,0
2017-10-12T01:29:01.958Z,0
2017-10-12T01:30:14.535Z,0
2017-10-12T01:31:27.099Z,0
2017-10-12T01:32:38.703Z,0
2017-10-12T01:33:50.966Z,0
2017-10-12T01:35:03.537Z,0
2017-10-12T01:36:15.782Z,0
2017-10-12T01:37:28.043Z,0
2017-10-12T01:38:39.973Z,0
2017-10-12T01:39:52.244Z,0
2017-10-12T01:41:04.171Z,0
2017-10-12T01:42:16.736Z,0
2017-10-12T01:43:28.993Z,0
2017-10-12T01:44:41.559Z,0
2017-10-12T01:45:53.800Z,0
2017-10-12T01:47:06.367Z,0
2017-10-12T01:48:18.320Z,0
2017-10-12T01:49:30.569Z,0
2017-10-12T01:50:43.136Z,0
2017-10-12T01:51:55.700Z,0
2017-10-12T01:53:07.621Z,0
2017-10-12T01:54:19.879Z,0
2017-10-12T01:55:32.137Z,0
2017-10-12T01:56:44.388Z,0
2017-10-12T01:57:56.953Z,0
2017-10-12T01:59:09.499Z,0
2017-10-12T02:00:21.994Z,0
2017-10-12T02:01:34.565Z,0
2017-10-12T02:02:47.136Z,0
2017-10-12T02:03:59.718Z,0
2017-10-12T02:05:12.290Z,0
2017-10-12T02:06:24.852Z,0
2017-10-12T02:07:37.419Z,0
2017-10-12T02:08:49.988Z,0
2017-10-12T02:10:02.213Z,0
2017-10-12T02:11:14.780Z,0
2017-10-12T02:12:27.051Z,0
2017-10-12T02:13:39.297Z,0
2017-10-12T02:14:51.866Z,0
2017-10-12T02:16:04.113Z,0
2017-10-12T02:17:16.697Z,0
2017-10-12T02:18:28.930Z,0
2017-10-12T02:19:40.851Z,0
2017-10-12T02:20:53.095Z,0
2017-10-12T02:22:05.341Z,0
2017-10-12T02:23:17.912Z,0
2017-10-12T02:24:30.483Z,0
2017-10-12T02:25:42.411Z,0
2017-10-12T02:26:54.650Z,0
2017-10-12T02:28:07.228Z,0
2017-10-12T02:29:19.820Z,0
2017-10-12T02:30:31.762Z,0
2017-10-12T02:31:44.005Z,0
2017-10-12T02:32:56.562Z,0
2017-10-12T02:34:09.111Z,0
2017-10-12T02:35:21.700Z,0
2017-10-12T02:36:33.938Z,0
2017-10-12T02:37:46.510Z,0
2017-10-12T02:38:58.762Z,0
2017-10-12T02:40:11.012Z,0
2017-10-12T02:41:23.597Z,0
2017-10-12T02:42:35.849Z,0
2017-10-12T02:43:49.145Z,0
2017-10-12T02:45:01.720Z,0
2017-10-12T02:46:13.981Z,0
2017-10-12T02:47:26.532Z,0
2017-10-12T02:48:38.795Z,0
2017-10-12T02:49:51.355Z,0
2017-10-12T02:51:03.612Z,0
2017-10-12T02:52:15.883Z,0
2017-10-12T02:53:28.452Z,0
2017-10-12T02:54:40.048Z,0
2017-10-12T02:55:52.645Z,0
2017-10-12T02:57:04.915Z,0
2017-10-12T02:58:17.485Z,0
2017-10-12T02:59:30.056Z,0
2017-10-12T03:00:42.626Z,0
2017-10-12T03:01:54.882Z,0
2017-10-12T03:03:07.443Z,0
2017-10-12T03:04:19.688Z,0
2017-10-12T03:05:31.917Z,0
2017-10-12T03:06:44.479Z,0
2017-10-12T03:07:57.034Z,0
2017-10-12T03:09:09.596Z,0
2017-10-12T03:10:21.192Z,0
2017-10-12T03:11:33.120Z,0
2017-10-12T03:12:45.360Z,0
2017-10-12T03:13:57.916Z,0
2017-10-12T03:15:10.475Z,0
2017-10-12T03:16:22.395Z,0
2017-10-12T03:17:34.328Z,0
2017-10-12T03:18:46.262Z,0
2017-10-12T03:19:58.494Z,0
2017-10-12T03:21:10.427Z,0
2017-10-12T03:22:22.698Z,0
2017-10-12T03:23:34.644Z,0
2017-10-12T03:24:46.897Z,0
2017-10-12T03:25:59.160Z,0
2017-10-12T03:27:11.394Z,0
2017-10-12T03:28:23.940Z,0
2017-10-12T03:29:36.532Z,0
2017-10-12T03:30:48.777Z,0
2017-10-12T03:32:01.327Z,0
2017-10-12T03:33:13.910Z,0
2017-10-12T03:34:26.154Z,0
2017-10-12T03:35:38.084Z,0
2017-10-12T03:36:50.371Z,0
2017-10-12T03:38:03.230Z,0
2017-10-12T03:39:15.800Z,0
2017-10-12T03:40:28.371Z,0
2017-10-12T03:41:40.638Z,0
2017-10-12T03:42:53.200Z,0
2017-10-12T03:44:05.770Z,0
2017-10-12T03:45:17.398Z,0
2017-10-12T03:46:29.961Z,0
2017-10-12T03:47:42.207Z,0
2017-10-12T03:48:54.713Z,0
2017-10-12T03:50:06.960Z,0
2017-10-12T03:51:19.519Z,0
2017-10-12T03:52:31.764Z,0
2017-10-12T03:53:44.334Z,0
2017-10-12T03:54:56.590Z,0
2017-10-12T03:56:08.852Z,0
2017-10-12T03:57:21.097Z,0
2017-10-12T03:58:33.351Z,0
2017-10-12T03:59:45.589Z,0
2017-10-12T04:00:57.844Z,0
2017-10-12T04:02:10.104Z,0
2017-10-12T04:03:22.684Z,0
2017-10-12T04:04:34.929Z,0
2017-10-12T04:05:47.492Z,0
2017-10-12T04:07:00.074Z,0
2017-10-12T04:08:12.333Z,0
2017-10-12T04:09:24.241Z,0
2017-10-12T04:10:36.406Z,0
2017-10-12T04:11:48.645Z,0
2017-10-12T04:13:00.552Z,0
2017-10-12T04:14:13.111Z,0
2017-10-12T04:15:25.681Z,0
2017-10-12T04:16:37.604Z,0
2017-10-12T04:17:49.523Z,0
2017-10-12T04:19:02.094Z,0
2017-10-12T04:20:14.664Z,0
2017-10-12T04:21:26.836Z,0
2017-10-12T04:22:39.081Z,0
2017-10-12T04:23:51.325Z,0
2017-10-12T04:25:03.262Z,0
2017-10-12T04:26:14.875Z,0
2017-10-12T04:27:26.814Z,0
2017-10-12T04:28:39.409Z,0
2017-10-12T04:29:51.667Z,0
2017-10-12T04:31:04.250Z,0
2017-10-12T04:32:16.735Z,0
2017-10-12T04:33:28.999Z,0
2017-10-12T04:34:40.901Z,0
2017-10-12T04:35:53.183Z,0
2017-10-12T04:37:05.437Z,0
2017-10-12T04:38:17.700Z,0
2017-10-12T04:39:30.270Z,0
2017-10-12T04:40:42.540Z,0
2017-10-12T04:41:55.128Z,0
2017-10-12T04:43:07.957Z,0
2017-10-12T04:44:20.210Z,0
2017-10-12T04:45:32.472Z,0
2017-10-12T04:46:44.075Z,0
2017-10-12T04:47:56.646Z,0
2017-10-12T04:49:08.910Z,0
2017-10-12T04:50:21.155Z,0
2017-10-12T04:51:33.727Z,0
2017-10-12T04:52:46.305Z,0
2017-10-12T04:53:58.892Z,0
2017-10-12T04:55:11.463Z,0
2017-10-12T04:56:24.025Z,0
2017-10-12T04:57:36.288Z,0
2017-10-12T04:58:48.850Z,0
2017-10-12T05:00:01.084Z,0
2017-10-12T05:01:13.342Z,4
2017-10-12T05:02:25.612Z,4
2017-10-12T05:03:37.533Z,0
2017-10-12T05:04:50.379Z,4
2017-10-12T05:06:02.949Z,4
2017-10-12T05:07:14.878Z,8
2017-10-12T05:08:26.815Z,8
2017-10-12T05:09:39.050Z,16
2017-10-12T05:10:51.307Z,16
2017-10-12T05:12:03.884Z,24
2017-10-12T05:13:16.123Z,24
2017-10-12T05:14:28.369Z,28
2017-10-12T05:15:40.940Z,36
2017-10-12T05:16:53.510Z,44
2017-10-12T05:18:05.758Z,44
2017-10-12T05:19:18.001Z,52
2017-10-12T05:20:29.946Z,64
2017-10-12T05:21:40.917Z,76
2017-10-12T05:22:53.163Z,88
2017-10-12T05:24:05.409Z,100
2017-10-12T05:25:17.331Z,104
2017-10-12T05:26:30.138Z,104
2017-10-12T05:27:42.396Z,108
2017-10-12T05:28:54.953Z,120
2017-10-12T05:30:07.512Z,128
2017-10-12T05:31:19.757Z,144
2017-10-12T05:32:31.667Z,160
2017-10-12T05:33:43.306Z,172
2017-10-12T05:34:55.895Z,188
2017-10-12T05:36:08.466Z,220
2017-10-12T05:37:20.694Z,240
2017-10-12T05:38:33.264Z,256
2017-10-12T05:39:45.538Z,288
2017-10-12T05:40:57.473Z,312
2017-10-12T05:42:10.043Z,388
2017-10-12T05:43:21.664Z,488
2017-10-12T05:44:33.909Z,544
2017-10-12T05:45:46.191Z,656
2017-10-12T05:46:58.739Z,660
2017-10-12T05:48:11.572Z,632
2017-10-12T05:49:23.818Z,624
2017-10-12T05:50:36.388Z,788
2017-10-12T05:51:48.633Z,928
2017-10-12T05:53:00.879Z,1048
2017-10-12T05:54:13.450Z,1128
2017-10-12T05:55:25.697Z,1604
2017-10-12T05:56:37.616Z,1364
2017-10-12T05:57:49.537Z,1108
2017-10-12T05:59:02.108Z,1212
2017-10-12T06:00:14.666Z,1260
2017-10-12T06:01:27.252Z,1300
2017-10-12T06:02:38.851Z,1412
2017-10-12T06:03:51.098Z,1248
2017-10-12T06:05:03.669Z,1136
2017-10-12T06:06:16.232Z,1360
2017-10-12T06:07:28.184Z,1460
2017-10-12T06:08:40.131Z,1296
2017-10-12T06:09:52.393Z,1840
2017-10-12T06:11:04.965Z,1872
2017-10-12T06:12:17.211Z,1876
2017-10-12T06:13:29.780Z,1264
2017-10-12T06:14:41.710Z,1252
2017-10-12T06:15:53.936Z,1180
2017-10-12T06:17:06.217Z,1564
2017-10-12T06:18:18.797Z,1500
2017-10-12T06:19:31.060Z,1316
2017-10-12T06:20:43.293Z,1408
2017-10-12T06:21:55.875Z,1876
2017-10-12T06:23:08.121Z,1460
2017-10-12T06:24:20.366Z,1744
2017-10-12T06:25:32.937Z,1360
2017-10-12T06:26:45.183Z,1192
2017-10-12T06:27:57.795Z,1308
2017-10-12T06:29:10.374Z,1924
2017-10-12T06:30:22.627Z,2248
2017-10-12T06:31:34.867Z,2216
2017-10-12T06:32:47.118Z,3072
2017-10-12T06:33:58.732Z,4408
2017-10-12T06:35:11.303Z,4428
2017-10-12T06:36:23.549Z,5388
2017-10-12T06:37:35.801Z,6092
2017-10-12T06:38:48.371Z,6276
2017-10-12T06:40:00.661Z,5580
2017-10-12T06:41:12.914Z,5432
2017-10-12T06:42:25.160Z,5576
2017-10-12T06:43:37.722Z,5724
2017-10-12T06:44:49.968Z,5544
2017-10-12T06:46:02.538Z,4444
2017-10-12T06:47:14.483Z,4756
2017-10-12T06:48:26.418Z,4620
2017-10-12T06:49:39.001Z,4536
2017-10-12T06:50:51.245Z,5600
2017-10-12T06:52:03.494Z,5096
2017-10-12T06:53:16.062Z,4440
2017-10-12T06:54:28.634Z,3924
2017-10-12T06:55:40.880Z,4856
2017-10-12T06:56:53.450Z,4840
2017-10-12T06:58:05.695Z,4760
2017-10-12T06:59:17.940Z,3956
2017-10-12T07:00:30.193Z,3448
2017-10-12T07:01:42.764Z,3748
2017-10-12T07:02:55.010Z,4680
2017-10-12T07:04:07.255Z,4024
2017-10-12T07:05:18.850Z,4292
2017-10-12T07:06:31.414Z,4320
2017-10-12T07:07:43.985Z,4192
2017-10-12T07:08:56.239Z,4256
2017-10-12T07:10:08.176Z,3872
2017-10-12T07:11:20.097Z,4732
2017-10-12T07:12:32.667Z,6164
2017-10-12T07:13:44.920Z,6900
2017-10-12T07:14:57.160Z,5868
2017-10-12T07:16:09.729Z,4960
2017-10-12T07:17:21.675Z,4892
2017-10-12T07:18:34.245Z,5112
2017-10-12T07:19:46.816Z,4808
2017-10-12T07:20:58.736Z,4164
2017-10-12T07:22:10.983Z,5868
2017-10-12T07:23:23.557Z,8896
2017-10-12T07:24:35.474Z,8944
2017-10-12T07:25:48.045Z,8124
2017-10-12T07:27:00.616Z,9768
2017-10-12T07:28:13.192Z,8204
2017-10-12T07:29:25.757Z,7412
2017-10-12T07:30:37.685Z,6804
2017-10-12T07:31:50.249Z,4260
2017-10-12T07:33:02.492Z,5232
2017-10-12T07:34:14.427Z,8812
2017-10-12T07:35:26.674Z,11764
2017-10-12T07:36:38.930Z,6812
2017-10-12T07:37:51.501Z,8356
2017-10-12T07:39:04.073Z,10232
2017-10-12T07:40:16.630Z,11680
2017-10-12T07:41:28.592Z,10740
2017-10-12T07:42:40.835Z,11084
2017-10-12T07:43:52.754Z,10884
2017-10-12T07:45:05.000Z,6268
2017-10-12T07:46:17.571Z,4204
2017-10-12T07:47:29.825Z,4520
2017-10-12T07:48:42.087Z,4216
2017-10-12T07:49:54.665Z,4192
2017-10-12T07:51:06.929Z,5220
2017-10-12T07:52:19.506Z,5944
2017-10-12T07:53:32.078Z,10528
2017-10-12T07:54:43.998Z,15584
2017-10-12T07:55:56.269Z,15424
2017-10-12T07:57:08.536Z,12304
2017-10-12T07:58:20.728Z,13484
2017-10-12T07:59:33.297Z,14220
2017-10-12T08:00:45.869Z,10796
2017-10-12T08:01:57.164Z,13128
2017-10-12T08:03:09.734Z,10232
2017-10-12T08:04:21.988Z,9500
2017-10-12T08:05:34.559Z,9884
2017-10-12T08:06:46.822Z,11096
2017-10-12T08:07:59.393Z,10012
2017-10-12T08:09:11.338Z,13716
2017-10-12T08:10:23.911Z,12884
2017-10-12T08:11:36.479Z,11532
2017-10-12T08:12:48.733Z,11564
2017-10-12T08:14:01.300Z,15772
2017-10-12T08:15:13.566Z,14912
2017-10-12T08:16:25.812Z,14612
2017-10-12T08:17:38.383Z,16800
2017-10-12T08:18:50.317Z,12876
2017-10-12T08:20:02.899Z,9608
2017-10-12T08:21:15.144Z,9816
2017-10-12T08:22:27.715Z,9584
2017-10-12T08:23:40.285Z,10248
2017-10-12T08:24:52.868Z,9984
2017-10-12T08:26:05.415Z,10428
2017-10-12T08:27:17.348Z,10640
2017-10-12T08:28:29.626Z,8336
2017-10-12T08:29:42.203Z,8996
2017-10-12T08:30:54.767Z,7980
2017-10-12T08:32:07.356Z,7468
2017-10-12T08:33:19.284Z,7168
2017-10-12T08:34:31.535Z,7976
2017-10-12T08:35:43.494Z,10120
2017-10-12T08:36:56.063Z,12396
2017-10-12T08:38:07.991Z,9968
2017-10-12T08:39:20.267Z,8380
2017-10-12T08:40:32.850Z,8700
2017-10-12T08:41:44.452Z,9456
2017-10-12T08:42:57.003Z,12236
2017-10-12T08:44:08.926Z,12976
2017-10-12T08:45:21.184Z,13008
2017-10-12T08:46:33.753Z,12364
2017-10-12T08:47:46.007Z,11108
2017-10-12T08:48:58.244Z,11784
2017-10-12T08:50:10.823Z,9560
2017-10-12T08:51:22.785Z,13388
2017-10-12T08:52:35.065Z,14140
2017-10-12T08:53:47.651Z,13664
2017-10-12T08:55:00.211Z,14964
2017-10-12T08:56:12.470Z,12312
2017-10-12T08:57:24.721Z,14436
2017-10-12T08:58:37.546Z,13428
2017-10-12T08:59:49.805Z,14996
2017-10-12T09:01:02.040Z,11768
2017-10-12T09:02:13.992Z,13248
2017-10-12T09:03:25.917Z,18816
2017-10-12T09:04:37.837Z,15276
2017-10-12T09:05:50.115Z,12716
2017-10-12T09:07:02.679Z,17024
2017-10-12T09:08:15.275Z,15268
2017-10-12T09:09:27.521Z,15284
2017-10-12T09:10:39.766Z,17248
2017-10-12T09:11:52.012Z,14364
2017-10-12T09:13:04.283Z,11844
2017-10-12T09:14:16.842Z,9000
2017-10-12T09:15:29.099Z,9216
2017-10-12T09:16:41.345Z,5620
2017-10-12T09:17:53.915Z,5940
2017-10-12T09:19:05.861Z,5588
2017-10-12T09:20:18.115Z,10740
2017-10-12T09:21:30.405Z,14192
2017-10-12T09:22:42.972Z,13128
2017-10-12T09:23:55.226Z,7108
2017-10-12T09:25:07.777Z,7328
2017-10-12T09:26:20.046Z,9676
2017-10-12T09:27:32.630Z,12620
2017-10-12T09:28:45.202Z,13944
2017-10-12T09:29:57.448Z,16128
2017-10-12T09:31:09.703Z,15080
2017-10-12T09:32:21.964Z,16008
2017-10-12T09:33:34.536Z,15132
2017-10-12T09:34:47.138Z,15708
2017-10-12T09:35:59.374Z,13736
2017-10-12T09:37:11.620Z,15572
2017-10-12T09:38:23.249Z,16008
2017-10-12T09:39:35.497Z,14604
2017-10-12T09:40:48.057Z,13768
2017-10-12T09:42:00.311Z,11896
2017-10-12T09:43:11.922Z,8364
2017-10-12T09:44:24.195Z,5716
2017-10-12T09:45:36.137Z,4120
2017-10-12T09:46:48.736Z,4100
2017-10-12T09:48:00.681Z,2796
2017-10-12T09:49:12.915Z,1656
2017-10-12T09:50:25.180Z,1312
2017-10-12T09:51:37.442Z,1628
2017-10-12T09:52:49.684Z,1276
2017-10-12T09:54:02.260Z,1568
2017-10-12T09:55:14.831Z,1872
2017-10-12T09:56:26.751Z,1940
2017-10-12T09:57:39.272Z,2052
2017-10-12T09:58:51.842Z,2540
2017-10-12T10:00:03.463Z,3164
2017-10-12T10:01:15.420Z,2752
2017-10-12T10:02:27.679Z,2892
2017-10-12T10:03:39.607Z,3728
2017-10-12T10:04:51.854Z,3472
2017-10-12T10:06:04.442Z,4384
2017-10-12T10:07:16.715Z,6276
2017-10-12T10:08:28.957Z,7440
2017-10-12T10:09:41.533Z,6668
2017-10-12T10:10:54.098Z,5596
2017-10-12T10:12:06.045Z,6872
2017-10-12T10:13:18.616Z,9096
2017-10-12T10:14:31.185Z,10512
2017-10-12T10:15:43.431Z,8864
2017-10-12T10:16:55.683Z,10048
2017-10-12T10:18:07.948Z,12060
2017-10-12T10:19:20.763Z,11000
2017-10-12T10:20:33.340Z,9380
2017-10-12T10:21:45.909Z,10820
2017-10-12T10:22:58.155Z,13640
2017-10-12T10:24:10.725Z,12588
2017-10-12T10:25:23.021Z,11668
2017-10-12T10:26:35.275Z,10532
2017-10-12T10:27:47.512Z,9524
2017-10-12T10:29:00.084Z,10648
2017-10-12T10:30:12.679Z,12652
2017-10-12T10:31:25.251Z,15148
2017-10-12T10:32:37.496Z,15732
2017-10-12T10:33:50.075Z,13080
2017-10-12T10:35:02.013Z,12960
2017-10-12T10:36:14.263Z,11388
2017-10-12T10:37:26.852Z,9992
2017-10-12T10:38:39.424Z,8556
2017-10-12T10:39:51.676Z,8204
2017-10-12T10:41:03.922Z,7596
2017-10-12T10:42:15.865Z,7316
2017-10-12T10:43:28.456Z,6544
2017-10-12T10:44:41.033Z,7088
2017-10-12T10:45:53.283Z,7548
2017-10-12T10:47:05.518Z,7368
2017-10-12T10:48:17.446Z,8224
2017-10-12T10:49:29.366Z,11248
2017-10-12T10:50:41.929Z,11668
2017-10-12T10:51:54.164Z,10408
2017-10-12T10:53:06.086Z,10216
2017-10-12T10:54:18.699Z,10872
2017-10-12T10:55:30.963Z,11832
2017-10-12T10:56:42.908Z,12632
2017-10-12T10:57:55.154Z,12704
2017-10-12T10:59:07.728Z,12564
2017-10-12T11:00:20.304Z,12188
2017-10-12T11:01:32.927Z,11480
2017-10-12T11:02:45.437Z,10804
2017-10-12T11:03:57.382Z,10644
2017-10-12T11:05:09.953Z,11684
2017-10-12T11:06:22.548Z,11932
2017-10-12T11:07:35.121Z,12964
2017-10-12T11:08:47.691Z,14684
2017-10-12T11:09:59.636Z,12088
2017-10-12T11:11:12.231Z,8736
2017-10-12T11:12:24.477Z,8860
2017-10-12T11:13:37.048Z,9632
2017-10-12T11:14:49.300Z,11648
2017-10-12T11:16:01.871Z,8972
2017-10-12T11:17:13.810Z,9432
2017-10-12T11:18:25.737Z,7280
2017-10-12T11:19:38.300Z,6420
2017-10-12T11:20:50.547Z,7936
2017-10-12T11:22:02.792Z,7396
2017-10-12T11:23:14.713Z,11932
2017-10-12T11:24:26.958Z,13748
2017-10-12T11:25:39.203Z,10012
2017-10-12T11:26:51.131Z,7724
2017-10-12T11:28:03.074Z,10696
2017-10-12T11:29:15.316Z,11236
2017-10-12T11:30:26.925Z,9496
2017-10-12T11:31:39.507Z,11016
2017-10-12T11:32:51.751Z,8596
2017-10-12T11:34:04.000Z,6148
2017-10-12T11:35:15.953Z,6968
2017-10-12T11:36:28.526Z,8320
2017-10-12T11:37:40.137Z,8568
2017-10-12T11:38:52.706Z,7320
2017-10-12T11:40:04.675Z,8832
2017-10-12T11:41:17.259Z,10404
2017-10-12T11:42:29.807Z,13756
2017-10-12T11:43:42.395Z,13568
2017-10-12T11:44:54.642Z,11944
2017-10-12T11:46:07.238Z,10636
2017-10-12T11:47:18.850Z,8840
2017-10-12T11:48:31.096Z,9656
2017-10-12T11:49:43.675Z,11496
2017-10-12T11:50:55.927Z,13336
2017-10-12T11:52:08.183Z,11292
2017-10-12T11:53:20.754Z,8768
2017-10-12T11:54:33.000Z,7872
2017-10-12T11:55:44.909Z,7412
2017-10-12T11:56:57.174Z,7996
2017-10-12T11:58:09.437Z,7372
2017-10-12T11:59:21.995Z,7180
2017-10-12T12:00:34.586Z,7236
2017-10-12T12:01:47.148Z,7360
2017-10-12T12:02:59.393Z,8560
2017-10-12T12:04:11.640Z,12868
2017-10-12T12:05:23.561Z,14012
2017-10-12T12:06:36.130Z,12388
2017-10-12T12:07:48.390Z,10604
2017-10-12T12:09:00.655Z,9552
2017-10-12T12:10:12.592Z,8640
2017-10-12T12:11:24.827Z,8912
2017-10-12T12:12:37.084Z,9340
2017-10-12T12:13:49.367Z,10124
2017-10-12T12:15:01.625Z,15676
2017-10-12T12:16:14.196Z,11060
2017-10-12T12:17:26.443Z,17184
2017-10-12T12:18:38.363Z,16576
2017-10-12T12:19:50.282Z,13672
2017-10-12T12:21:02.530Z,10364
2017-10-12T12:22:15.125Z,10144
2017-10-12T12:23:27.375Z,10812
2017-10-12T12:24:39.940Z,11236
2017-10-12T12:25:52.512Z,12128
2017-10-12T12:27:04.432Z,14304
2017-10-12T12:28:17.002Z,13652
2017-10-12T12:29:28.632Z,13176
2017-10-12T12:30:40.896Z,13100
2017-10-12T12:31:53.464Z,12280
2017-10-12T12:33:05.393Z,13176
2017-10-12T12:34:17.331Z,14476
2017-10-12T12:35:29.908Z,14096
2017-10-12T12:36:42.172Z,14228
2017-10-12T12:37:54.743Z,13960
2017-10-12T12:39:07.321Z,13796
2017-10-12T12:40:19.860Z,13416
2017-10-12T12:41:32.431Z,13692
2017-10-12T12:42:45.001Z,12924
2017-10-12T12:43:57.271Z,12868
2017-10-12T12:45:09.842Z,12076
2017-10-12T12:46:22.112Z,13796
2017-10-12T12:47:34.346Z,13788
2017-10-12T12:48:46.605Z,10096
2017-10-12T12:49:58.858Z,9516
2017-10-12T12:51:11.451Z,9116
2017-10-12T12:52:23.398Z,10136
2017-10-12T12:53:35.997Z,8908
2017-10-12T12:54:48.258Z,7732
2017-10-12T12:56:00.511Z,7672
2017-10-12T12:57:12.773Z,8040
2017-10-12T12:58:25.029Z,9628
2017-10-12T12:59:37.590Z,10676
2017-10-12T13:00:49.854Z,11616
2017-10-12T13:02:02.106Z,11836
2017-10-12T13:03:14.035Z,11732
2017-10-12T13:04:26.622Z,10988
2017-10-12T13:05:38.902Z,9744
2017-10-12T13:06:50.543Z,9688
2017-10-12T13:08:03.109Z,10160
2017-10-12T13:09:15.354Z,9764
2017-10-12T13:10:27.600Z,10236
2017-10-12T13:11:39.863Z,10168
2017-10-12T13:12:52.441Z,9680
2017-10-12T13:14:04.712Z,9572
2017-10-12T13:15:16.958Z,9096
2017-10-12T13:16:29.535Z,10048
2017-10-12T13:17:42.110Z,9664
2017-10-12T13:18:54.695Z,8576
2017-10-12T13:20:06.953Z,8476
2017-10-12T13:21:18.894Z,8148
2017-10-12T13:22:31.456Z,8188
2017-10-12T13:23:43.703Z,8012
2017-10-12T13:24:56.274Z,8232
2017-10-12T13:26:08.518Z,8184
2017-10-12T13:27:20.754Z,8160
2017-10-12T13:28:33.018Z,8192
2017-10-12T13:29:44.963Z,8804
2017-10-12T13:30:57.226Z,8268
2017-10-12T13:32:09.811Z,7656
2017-10-12T13:33:22.393Z,7912
2017-10-12T13:34:34.968Z,8068
2017-10-12T13:35:47.542Z,8208
2017-10-12T13:37:00.113Z,8624
2017-10-12T13:38:12.376Z,9320
2017-10-12T13:39:24.629Z,9356
2017-10-12T13:40:36.568Z,9192
2017-10-12T13:41:48.812Z,8616
2017-10-12T13:43:01.372Z,8952
2017-10-12T13:44:13.312Z,10072
2017-10-12T13:45:25.557Z,12208
2017-10-12T13:46:37.178Z,10184
2017-10-12T13:47:49.441Z,8540
2017-10-12T13:49:01.688Z,7872
2017-10-12T13:50:13.932Z,7848
2017-10-12T13:51:26.178Z,6912
2017-10-12T13:52:38.733Z,6792
2017-10-12T13:53:50.994Z,7068
2017-10-12T13:55:03.566Z,7036
2017-10-12T13:56:15.836Z,6768
2017-10-12T13:57:28.407Z,8156
2017-10-12T13:58:40.984Z,8524
2017-10-12T13:59:53.561Z,9744
2017-10-12T14:01:06.146Z,9204
2017-10-12T14:02:18.389Z,9132
2017-10-12T14:03:30.959Z,6676
2017-10-12T14:04:43.204Z,5296
2017-10-12T14:05:55.450Z,4720
2017-10-12T14:07:08.030Z,4300
2017-10-12T14:08:20.624Z,6216
2017-10-12T14:09:32.871Z,6976
2017-10-12T14:10:45.121Z,7672
2017-10-12T14:11:57.380Z,7640
2017-10-12T14:13:09.002Z,6588
2017-10-12T14:14:21.245Z,6552
2017-10-12T14:15:33.816Z,6884
2017-10-12T14:16:46.411Z,6900
2017-10-12T14:17:58.583Z,7612
2017-10-12T14:19:10.833Z,9312
2017-10-12T14:20:23.423Z,8804
2017-10-12T14:21:35.983Z,8348
2017-10-12T14:22:48.228Z,6232
2017-10-12T14:24:00.810Z,4704
2017-10-12T14:25:12.756Z,5080
2017-10-12T14:26:25.327Z,4808
2017-10-12T14:27:37.898Z,4816
2017-10-12T14:28:50.144Z,4496
2017-10-12T14:30:02.714Z,4004
2017-10-12T14:31:14.659Z,3548
2017-10-12T14:32:27.229Z,3308
2017-10-12T14:33:39.150Z,3168
2017-10-12T14:34:50.772Z,3044
2017-10-12T14:37:15.296Z,3060
2017-10-12T14:38:27.897Z,3028
2017-10-12T14:39:40.153Z,3320
2017-10-12T14:40:52.400Z,3260
2017-10-12T14:42:04.971Z,3636
2017-10-12T14:43:17.566Z,4440
2017-10-12T14:44:29.811Z,4924
2017-10-12T14:45:42.058Z,3424
2017-10-12T14:46:54.328Z,3064
2017-10-12T14:48:06.278Z,3012
2017-10-12T14:49:18.201Z,2884
2017-10-12T14:50:30.789Z,2968
2017-10-12T14:51:43.361Z,2804
2017-10-12T14:52:55.606Z,3032
2017-10-12T14:54:07.534Z,3572
2017-10-12T14:55:19.482Z,2976
2017-10-12T14:56:31.743Z,2900
2017-10-12T14:57:43.988Z,3004
2017-10-12T14:58:56.234Z,3516
2017-10-12T15:00:08.794Z,3804
2017-10-12T15:01:21.409Z,4272
2017-10-12T15:02:33.996Z,4772
2017-10-12T15:03:45.928Z,4256
2017-10-12T15:04:58.496Z,3508
2017-10-12T15:06:11.069Z,3480
2017-10-12T15:07:23.638Z,3632
2017-10-12T15:08:35.900Z,3864
2017-10-12T15:09:48.477Z,3392
2017-10-12T15:11:00.424Z,2616
2017-10-12T15:12:12.677Z,2184
2017-10-12T15:13:24.932Z,2236
2017-10-12T15:14:36.886Z,2300
2017-10-12T15:15:49.450Z,2408
2017-10-12T15:17:02.019Z,2304
2017-10-12T15:18:13.623Z,2328
2017-10-12T15:19:25.590Z,2712
2017-10-12T15:20:38.207Z,2828
2017-10-12T15:21:50.127Z,2776
2017-10-12T15:23:02.697Z,2640
2017-10-12T15:24:14.945Z,3116
2017-10-12T15:25:27.194Z,2664
2017-10-12T15:26:39.435Z,2528
2017-10-12T15:27:51.680Z,2232
2017-10-12T15:29:04.250Z,1892
2017-10-12T15:30:16.823Z,1688
2017-10-12T15:31:29.066Z,1564
2017-10-12T15:32:41.640Z,1460
2017-10-12T15:33:53.872Z,1392
2017-10-12T15:35:06.455Z,1348
2017-10-12T15:36:19.012Z,1348
2017-10-12T15:37:30.620Z,1328
2017-10-12T15:38:43.190Z,1264
2017-10-12T15:39:55.462Z,1268
2017-10-12T15:41:08.033Z,1280
2017-10-12T15:42:20.611Z,1196
2017-10-12T15:43:32.873Z,1168
2017-10-12T15:44:44.802Z,1108
2017-10-12T15:45:56.747Z,1084
2017-10-12T15:47:09.335Z,1088
2017-10-12T15:48:21.607Z,1104
2017-10-12T15:49:34.182Z,1084
2017-10-12T15:50:46.130Z,1060
2017-10-12T15:51:58.060Z,1064
2017-10-12T15:53:10.646Z,1036
2017-10-12T15:54:23.209Z,1016
2017-10-12T15:55:35.781Z,1004
2017-10-12T15:56:48.359Z,984
2017-10-12T15:58:00.921Z,956
2017-10-12T15:59:12.850Z,924
2017-10-12T16:00:25.421Z,888
2017-10-12T16:01:37.658Z,832
2017-10-12T16:02:49.892Z,756
2017-10-12T16:04:02.483Z,668
2017-10-12T16:05:15.053Z,592
2017-10-12T16:06:27.297Z,520
2017-10-12T16:07:39.236Z,460
2017-10-12T16:08:51.809Z,412
2017-10-12T16:10:04.378Z,376
2017-10-12T16:11:16.630Z,336
2017-10-12T16:12:28.557Z,308
2017-10-12T16:13:40.815Z,280
2017-10-12T16:14:52.734Z,256
2017-10-12T16:16:04.664Z,236
2017-10-12T16:17:16.926Z,212
2017-10-12T16:18:29.221Z,192
2017-10-12T16:19:41.468Z,172
2017-10-12T16:20:54.023Z,152
2017-10-12T16:22:05.967Z,136
2017-10-12T16:23:18.531Z,116
2017-10-12T16:24:30.783Z,104
2017-10-12T16:25:43.042Z,88
2017-10-12T16:26:55.617Z,80
2017-10-12T16:28:08.188Z,68
2017-10-12T16:29:20.444Z,56
2017-10-12T16:30:32.055Z,48
2017-10-12T16:31:44.300Z,40